KTBR/TBR METAR and TAF weather

Enter ICAO airport designator
Station Type Date Time Source
KTBR METAR 2020/06/03 22:55 UTC NOAA

KTBR 032255Z AUTO 19003KT 10SM CLR 28/18 A2997 RMK AO2 T02790181


Station Type Date Time Source
KTBR Decoded METAR 2020/06/03 22:55 UTC NOAA

Statesboro, Statesboro-Bulloch County Airport, GA, United States (KTBR) 32-28-59N 081-44-14W
Jun 03, 2020 - 06:55 PM EDT / 2020.06.03 2255 UTC
Wind: from the S (190 degrees) at 3 MPH (3 KT):0
Visibility: 10 mile(s):0
Sky conditions: clear
Temperature: 82.2 F (27.9 C)
Dew Point: 64.6 F (18.1 C)
Relative Humidity: 55%
Pressure (altimeter): 29.97 in. Hg (1014 hPa)
ob: KTBR 032255Z AUTO 19003KT 10SM CLR 28/18 A2997 RMK AO2 T02790181
cycle: 23

Station Type Date Time Source
KTBR TAF UTC NOAA

Error!

Example: see airport list